sensor_id;sensor_type;location;lat;lon;timestamp;P1;durP1;ratioP1;P2;durP2;ratioP2
21810;SDS011;11067;48.788;9.208;2024-03-07T00:02:17;33.97;;;20.88;;
21810;SDS011;11067;48.788;9.208;2024-03-07T00:04:43;32.70;;;20.77;;
21810;SDS011;11067;48.788;9.208;2024-03-07T00:07:09;34.13;;;20.53;;
21810;SDS011;11067;48.788;9.208;2024-03-07T00:09:34;34.33;;;20.97;;
21810;SDS011;11067;48.788;9.208;2024-03-07T00:12:00;33.77;;;21.30;;
21810;SDS011;11067;48.788;9.208;2024-03-07T00:14:31;34.80;;;21.47;;
21810;SDS011;11067;48.788;9.208;2024-03-07T00:16:57;34.75;;;20.38;;
21810;SDS011;11067;48.788;9.208;2024-03-07T00:19:24;36.55;;;21.38;;
21810;SDS011;11067;48.788;9.208;2024-03-07T00:21:53;35.78;;;20.98;;
21810;SDS011;11067;48.788;9.208;2024-03-07T00:24:19;33.60;;;19.75;;
21810;SDS011;11067;48.788;9.208;2024-03-07T00:26:45;33.47;;;20.80;;
21810;SDS011;11067;48.788;9.208;2024-03-07T00:29:11;32.77;;;20.93;;
21810;SDS011;11067;48.788;9.208;2024-03-07T00:31:37;36.37;;;21.33;;
21810;SDS011;11067;48.788;9.208;2024-03-07T00:34:02;33.30;;;20.33;;
21810;SDS011;11067;48.788;9.208;2024-03-07T00:36:28;34.65;;;20.52;;
21810;SDS011;11067;48.788;9.208;2024-03-07T00:38:53;34.67;;;21.13;;
21810;SDS011;11067;48.788;9.208;2024-03-07T00:41:19;33.80;;;20.37;;
21810;SDS011;11067;48.788;9.208;2024-03-07T00:43:45;34.22;;;21.13;;
21810;SDS011;11067;48.788;9.208;2024-03-07T00:46:11;35.15;;;21.38;;
21810;SDS011;11067;48.788;9.208;2024-03-07T00:48:37;35.53;;;21.13;;
21810;SDS011;11067;48.788;9.208;2024-03-07T00:51:03;35.23;;;21.43;;
21810;SDS011;11067;48.788;9.208;2024-03-07T00:53:29;36.30;;;21.63;;
21810;SDS011;11067;48.788;9.208;2024-03-07T00:55:55;33.83;;;20.70;;
21810;SDS011;11067;48.788;9.208;2024-03-07T00:58:20;34.55;;;21.10;;
21810;SDS011;11067;48.788;9.208;2024-03-07T01:00:46;36.60;;;22.07;;
21810;SDS011;11067;48.788;9.208;2024-03-07T01:03:12;33.20;;;21.10;;
21810;SDS011;11067;48.788;9.208;2024-03-07T01:05:39;35.07;;;20.63;;
21810;SDS011;11067;48.788;9.208;2024-03-07T01:08:05;30.83;;;19.83;;
21810;SDS011;11067;48.788;9.208;2024-03-07T01:10:31;34.58;;;21.05;;
21810;SDS011;11067;48.788;9.208;2024-03-07T01:12:57;32.83;;;20.37;;
21810;SDS011;11067;48.788;9.208;2024-03-07T01:15:26;36.38;;;21.27;;
21810;SDS011;11067;48.788;9.208;2024-03-07T01:17:52;33.53;;;22.10;;
21810;SDS011;11067;48.788;9.208;2024-03-07T01:20:18;36.50;;;21.23;;
21810;SDS011;11067;48.788;9.208;2024-03-07T01:22:43;36.90;;;22.00;;
21810;SDS011;11067;48.788;9.208;2024-03-07T01:25:09;33.08;;;21.13;;
21810;SDS011;11067;48.788;9.208;2024-03-07T01:27:35;36.55;;;21.90;;
21810;SDS011;11067;48.788;9.208;2024-03-07T01:30:00;33.75;;;21.52;;
21810;SDS011;11067;48.788;9.208;2024-03-07T01:32:26;35.90;;;22.40;;
21810;SDS011;11067;48.788;9.208;2024-03-07T01:34:54;35.58;;;22.40;;
21810;SDS011;11067;48.788;9.208;2024-03-07T01:37:19;35.95;;;22.30;;
21810;SDS011;11067;48.788;9.208;2024-03-07T01:39:45;37.45;;;23.35;;
21810;SDS011;11067;48.788;9.208;2024-03-07T01:42:11;38.30;;;22.80;;
21810;SDS011;11067;48.788;9.208;2024-03-07T01:44:37;37.40;;;22.60;;
21810;SDS011;11067;48.788;9.208;2024-03-07T01:47:05;40.80;;;24.15;;
21810;SDS011;11067;48.788;9.208;2024-03-07T01:49:31;35.67;;;22.50;;
21810;SDS011;11067;48.788;9.208;2024-03-07T01:51:57;36.67;;;22.85;;
21810;SDS011;11067;48.788;9.208;2024-03-07T01:54:25;38.47;;;23.23;;
21810;SDS011;11067;48.788;9.208;2024-03-07T01:56:51;36.38;;;23.35;;
21810;SDS011;11067;48.788;9.208;2024-03-07T01:59:17;38.28;;;23.17;;
21810;SDS011;11067;48.788;9.208;2024-03-07T02:01:45;40.20;;;23.55;;
21810;SDS011;11067;48.788;9.208;2024-03-07T02:04:12;40.65;;;22.70;;
21810;SDS011;11067;48.788;9.208;2024-03-07T02:06:37;37.00;;;22.85;;
21810;SDS011;11067;48.788;9.208;2024-03-07T02:09:03;41.35;;;24.38;;
21810;SDS011;11067;48.788;9.208;2024-03-07T02:11:30;43.83;;;26.13;;
21810;SDS011;11067;48.788;9.208;2024-03-07T02:13:56;45.47;;;25.63;;
21810;SDS011;11067;48.788;9.208;2024-03-07T02:16:22;41.67;;;25.58;;
21810;SDS011;11067;48.788;9.208;2024-03-07T02:18:48;41.92;;;25.35;;
21810;SDS011;11067;48.788;9.208;2024-03-07T02:21:15;44.22;;;25.65;;
21810;SDS011;11067;48.788;9.208;2024-03-07T02:23:40;42.90;;;24.77;;
21810;SDS011;11067;48.788;9.208;2024-03-07T02:26:06;42.05;;;25.88;;
21810;SDS011;11067;48.788;9.208;2024-03-07T02:28:33;45.03;;;27.48;;
21810;SDS011;11067;48.788;9.208;2024-03-07T02:30:59;42.60;;;26.90;;
21810;SDS011;11067;48.788;9.208;2024-03-07T02:33:25;44.60;;;26.77;;
21810;SDS011;11067;48.788;9.208;2024-03-07T02:35:51;44.20;;;27.17;;
21810;SDS011;11067;48.788;9.208;2024-03-07T02:38:17;41.87;;;26.23;;
21810;SDS011;11067;48.788;9.208;2024-03-07T02:40:43;46.53;;;26.45;;
21810;SDS011;11067;48.788;9.208;2024-03-07T02:43:08;43.83;;;26.50;;
21810;SDS011;11067;48.788;9.208;2024-03-07T02:45:34;46.60;;;26.90;;
21810;SDS011;11067;48.788;9.208;2024-03-07T02:47:59;45.30;;;26.23;;
21810;SDS011;11067;48.788;9.208;2024-03-07T02:50:25;43.60;;;27.70;;
21810;SDS011;11067;48.788;9.208;2024-03-07T02:52:51;46.47;;;27.20;;
21810;SDS011;11067;48.788;9.208;2024-03-07T02:55:17;43.65;;;26.83;;
21810;SDS011;11067;48.788;9.208;2024-03-07T02:57:44;45.00;;;26.87;;
21810;SDS011;11067;48.788;9.208;2024-03-07T03:00:10;45.72;;;27.10;;
21810;SDS011;11067;48.788;9.208;2024-03-07T03:02:46;48.75;;;27.75;;
21810;SDS011;11067;48.788;9.208;2024-03-07T03:05:14;46.75;;;27.33;;
21810;SDS011;11067;48.788;9.208;2024-03-07T03:07:41;45.67;;;27.13;;
21810;SDS011;11067;48.788;9.208;2024-03-07T03:10:07;47.30;;;29.00;;
21810;SDS011;11067;48.788;9.208;2024-03-07T03:12:36;46.17;;;27.67;;
21810;SDS011;11067;48.788;9.208;2024-03-07T03:15:02;47.08;;;27.15;;
21810;SDS011;11067;48.788;9.208;2024-03-07T03:17:30;46.75;;;27.85;;
21810;SDS011;11067;48.788;9.208;2024-03-07T03:19:55;44.30;;;27.05;;
21810;SDS011;11067;48.788;9.208;2024-03-07T03:22:21;45.40;;;27.77;;
21810;SDS011;11067;48.788;9.208;2024-03-07T03:24:47;46.53;;;27.70;;
21810;SDS011;11067;48.788;9.208;2024-03-07T03:27:12;46.23;;;27.10;;
21810;SDS011;11067;48.788;9.208;2024-03-07T03:29:38;47.65;;;28.50;;
21810;SDS011;11067;48.788;9.208;2024-03-07T03:32:05;52.23;;;29.73;;
21810;SDS011;11067;48.788;9.208;2024-03-07T03:34:32;49.80;;;28.70;;
21810;SDS011;11067;48.788;9.208;2024-03-07T03:36:58;50.80;;;30.08;;
21810;SDS011;11067;48.788;9.208;2024-03-07T03:39:24;53.40;;;29.77;;
21810;SDS011;11067;48.788;9.208;2024-03-07T03:41:51;50.90;;;29.77;;
21810;SDS011;11067;48.788;9.208;2024-03-07T03:44:17;50.17;;;29.00;;
21810;SDS011;11067;48.788;9.208;2024-03-07T03:46:43;52.15;;;29.02;;
21810;SDS011;11067;48.788;9.208;2024-03-07T03:49:09;51.13;;;29.85;;
21810;SDS011;11067;48.788;9.208;2024-03-07T03:51:35;52.43;;;30.07;;
21810;SDS011;11067;48.788;9.208;2024-03-07T03:54:01;58.83;;;29.67;;
21810;SDS011;11067;48.788;9.208;2024-03-07T03:56:26;48.53;;;28.98;;
21810;SDS011;11067;48.788;9.208;2024-03-07T03:58:52;49.97;;;30.00;;
21810;SDS011;11067;48.788;9.208;2024-03-07T04:01:18;53.78;;;30.55;;
21810;SDS011;11067;48.788;9.208;2024-03-07T04:03:43;51.17;;;30.73;;
21810;SDS011;11067;48.788;9.208;2024-03-07T04:06:11;52.33;;;29.67;;
21810;SDS011;11067;48.788;9.208;2024-03-07T04:08:37;54.10;;;29.58;;
21810;SDS011;11067;48.788;9.208;2024-03-07T04:11:03;55.35;;;30.27;;
21810;SDS011;11067;48.788;9.208;2024-03-07T04:13:29;54.42;;;30.33;;
21810;SDS011;11067;48.788;9.208;2024-03-07T04:15:56;50.78;;;29.52;;
21810;SDS011;11067;48.788;9.208;2024-03-07T04:18:22;47.63;;;28.52;;
21810;SDS011;11067;48.788;9.208;2024-03-07T04:20:48;48.37;;;28.93;;
21810;SDS011;11067;48.788;9.208;2024-03-07T04:23:14;51.77;;;30.00;;
21810;SDS011;11067;48.788;9.208;2024-03-07T04:25:40;51.47;;;28.63;;
21810;SDS011;11067;48.788;9.208;2024-03-07T04:28:06;49.40;;;28.20;;
21810;SDS011;11067;48.788;9.208;2024-03-07T04:30:31;48.43;;;28.43;;
21810;SDS011;11067;48.788;9.208;2024-03-07T04:32:57;49.03;;;28.77;;
21810;SDS011;11067;48.788;9.208;2024-03-07T04:35:23;45.47;;;27.80;;
21810;SDS011;11067;48.788;9.208;2024-03-07T04:37:49;46.53;;;27.70;;
21810;SDS011;11067;48.788;9.208;2024-03-07T04:40:15;44.50;;;27.25;;
21810;SDS011;11067;48.788;9.208;2024-03-07T04:42:44;42.50;;;26.95;;
21810;SDS011;11067;48.788;9.208;2024-03-07T04:45:11;44.27;;;27.03;;
21810;SDS011;11067;48.788;9.208;2024-03-07T04:47:41;46.45;;;27.50;;
21810;SDS011;11067;48.788;9.208;2024-03-07T04:50:09;48.60;;;25.88;;
21810;SDS011;11067;48.788;9.208;2024-03-07T04:52:39;48.03;;;27.52;;
21810;SDS011;11067;48.788;9.208;2024-03-07T04:55:08;45.27;;;26.20;;
21810;SDS011;11067;48.788;9.208;2024-03-07T04:57:35;46.25;;;27.63;;
21810;SDS011;11067;48.788;9.208;2024-03-07T05:00:10;44.97;;;27.50;;
21810;SDS011;11067;48.788;9.208;2024-03-07T05:02:40;44.35;;;26.15;;
21810;SDS011;11067;48.788;9.208;2024-03-07T05:05:06;46.10;;;27.83;;
21810;SDS011;11067;48.788;9.208;2024-03-07T05:07:32;48.10;;;28.73;;
21810;SDS011;11067;48.788;9.208;2024-03-07T05:09:58;50.08;;;29.17;;
21810;SDS011;11067;48.788;9.208;2024-03-07T05:12:24;48.70;;;29.83;;
21810;SDS011;11067;48.788;9.208;2024-03-07T05:14:49;49.13;;;27.53;;
21810;SDS011;11067;48.788;9.208;2024-03-07T05:17:15;48.90;;;28.88;;
21810;SDS011;11067;48.788;9.208;2024-03-07T05:19:41;50.72;;;29.25;;
21810;SDS011;11067;48.788;9.208;2024-03-07T05:22:06;50.95;;;29.60;;
21810;SDS011;11067;48.788;9.208;2024-03-07T05:24:32;57.70;;;28.85;;
21810;SDS011;11067;48.788;9.208;2024-03-07T05:26:58;49.75;;;28.83;;
21810;SDS011;11067;48.788;9.208;2024-03-07T05:29:24;51.08;;;29.50;;
21810;SDS011;11067;48.788;9.208;2024-03-07T05:31:50;53.60;;;29.35;;
21810;SDS011;11067;48.788;9.208;2024-03-07T05:34:16;54.17;;;28.75;;
21810;SDS011;11067;48.788;9.208;2024-03-07T05:36:45;53.75;;;30.23;;
21810;SDS011;11067;48.788;9.208;2024-03-07T05:39:17;48.40;;;29.27;;
21810;SDS011;11067;48.788;9.208;2024-03-07T05:41:44;52.33;;;30.67;;
21810;SDS011;11067;48.788;9.208;2024-03-07T05:44:10;55.88;;;31.05;;
21810;SDS011;11067;48.788;9.208;2024-03-07T05:46:37;55.85;;;31.17;;
21810;SDS011;11067;48.788;9.208;2024-03-07T05:49:09;51.13;;;29.93;;
21810;SDS011;11067;48.788;9.208;2024-03-07T05:51:34;49.85;;;28.60;;
21810;SDS011;11067;48.788;9.208;2024-03-07T05:54:00;50.50;;;30.15;;
21810;SDS011;11067;48.788;9.208;2024-03-07T05:59:02;52.50;;;29.40;;
21810;SDS011;11067;48.788;9.208;2024-03-07T06:01:32;54.60;;;31.80;;
21810;SDS011;11067;48.788;9.208;2024-03-07T06:03:59;51.22;;;30.13;;
21810;SDS011;11067;48.788;9.208;2024-03-07T06:06:25;53.63;;;30.92;;
21810;SDS011;11067;48.788;9.208;2024-03-07T06:08:52;49.95;;;29.83;;
21810;SDS011;11067;48.788;9.208;2024-03-07T06:11:17;50.22;;;30.20;;
21810;SDS011;11067;48.788;9.208;2024-03-07T06:13:46;50.93;;;29.67;;
21810;SDS011;11067;48.788;9.208;2024-03-07T06:16:14;54.75;;;31.50;;
21810;SDS011;11067;48.788;9.208;2024-03-07T06:18:40;50.27;;;28.97;;
21810;SDS011;11067;48.788;9.208;2024-03-07T06:21:06;50.58;;;28.75;;
21810;SDS011;11067;48.788;9.208;2024-03-07T06:23:33;49.83;;;29.13;;
21810;SDS011;11067;48.788;9.208;2024-03-07T06:25:59;52.42;;;28.90;;
21810;SDS011;11067;48.788;9.208;2024-03-07T06:28:25;50.17;;;28.98;;
21810;SDS011;11067;48.788;9.208;2024-03-07T06:30:53;54.20;;;28.67;;
21810;SDS011;11067;48.788;9.208;2024-03-07T06:33:20;50.13;;;28.27;;
21810;SDS011;11067;48.788;9.208;2024-03-07T06:35:46;49.17;;;28.38;;
21810;SDS011;11067;48.788;9.208;2024-03-07T06:38:13;49.20;;;28.02;;
21810;SDS011;11067;48.788;9.208;2024-03-07T06:40:39;47.03;;;27.23;;
21810;SDS011;11067;48.788;9.208;2024-03-07T06:43:05;47.05;;;27.67;;
21810;SDS011;11067;48.788;9.208;2024-03-07T06:45:34;48.08;;;26.48;;
21810;SDS011;11067;48.788;9.208;2024-03-07T06:48:01;48.83;;;27.02;;
21810;SDS011;11067;48.788;9.208;2024-03-07T06:50:34;44.90;;;26.45;;
21810;SDS011;11067;48.788;9.208;2024-03-07T06:53:01;44.85;;;26.17;;
21810;SDS011;11067;48.788;9.208;2024-03-07T06:55:27;43.03;;;25.63;;
21810;SDS011;11067;48.788;9.208;2024-03-07T06:57:53;45.30;;;26.43;;
21810;SDS011;11067;48.788;9.208;2024-03-07T07:00:20;46.50;;;25.65;;
21810;SDS011;11067;48.788;9.208;2024-03-07T07:02:47;41.42;;;25.27;;
21810;SDS011;11067;48.788;9.208;2024-03-07T07:05:12;43.27;;;25.57;;
21810;SDS011;11067;48.788;9.208;2024-03-07T07:07:58;39.97;;;24.23;;
21810;SDS011;11067;48.788;9.208;2024-03-07T07:10:24;42.70;;;26.05;;
21810;SDS011;11067;48.788;9.208;2024-03-07T07:12:49;38.20;;;23.50;;
21810;SDS011;11067;48.788;9.208;2024-03-07T07:15:17;42.22;;;25.83;;
21810;SDS011;11067;48.788;9.208;2024-03-07T07:17:43;48.90;;;24.98;;
21810;SDS011;11067;48.788;9.208;2024-03-07T07:20:14;44.15;;;25.80;;
21810;SDS011;11067;48.788;9.208;2024-03-07T07:22:44;38.58;;;24.67;;
21810;SDS011;11067;48.788;9.208;2024-03-07T07:25:11;39.35;;;23.60;;
21810;SDS011;11067;48.788;9.208;2024-03-07T07:27:47;40.83;;;23.67;;
21810;SDS011;11067;48.788;9.208;2024-03-07T07:30:14;41.25;;;24.23;;
21810;SDS011;11067;48.788;9.208;2024-03-07T07:32:41;38.40;;;24.10;;
21810;SDS011;11067;48.788;9.208;2024-03-07T07:35:08;40.70;;;23.58;;
21810;SDS011;11067;48.788;9.208;2024-03-07T07:37:36;38.87;;;23.27;;
21810;SDS011;11067;48.788;9.208;2024-03-07T07:40:10;36.35;;;23.48;;
21810;SDS011;11067;48.788;9.208;2024-03-07T07:42:43;36.03;;;22.45;;
21810;SDS011;11067;48.788;9.208;2024-03-07T07:45:13;39.45;;;22.20;;
21810;SDS011;11067;48.788;9.208;2024-03-07T07:47:40;33.85;;;21.83;;
21810;SDS011;11067;48.788;9.208;2024-03-07T07:50:07;34.83;;;22.17;;
21810;SDS011;11067;48.788;9.208;2024-03-07T07:52:42;39.05;;;22.52;;
21810;SDS011;11067;48.788;9.208;2024-03-07T07:55:13;36.50;;;21.90;;
21810;SDS011;11067;48.788;9.208;2024-03-07T07:57:42;34.83;;;21.17;;
21810;SDS011;11067;48.788;9.208;2024-03-07T08:00:10;37.78;;;20.52;;
21810;SDS011;11067;48.788;9.208;2024-03-07T08:02:37;35.60;;;22.30;;
21810;SDS011;11067;48.788;9.208;2024-03-07T08:05:02;30.23;;;18.50;;
21810;SDS011;11067;48.788;9.208;2024-03-07T08:07:30;33.22;;;18.50;;
21810;SDS011;11067;48.788;9.208;2024-03-07T08:09:56;29.80;;;18.43;;
21810;SDS011;11067;48.788;9.208;2024-03-07T08:12:21;30.67;;;19.10;;
21810;SDS011;11067;48.788;9.208;2024-03-07T08:14:47;29.55;;;18.15;;
21810;SDS011;11067;48.788;9.208;2024-03-07T08:17:13;29.88;;;17.65;;
21810;SDS011;11067;48.788;9.208;2024-03-07T08:19:38;29.40;;;17.90;;
21810;SDS011;11067;48.788;9.208;2024-03-07T08:22:04;29.08;;;18.55;;
21810;SDS011;11067;48.788;9.208;2024-03-07T08:24:30;31.60;;;19.02;;
21810;SDS011;11067;48.788;9.208;2024-03-07T08:26:57;29.52;;;18.13;;
21810;SDS011;11067;48.788;9.208;2024-03-07T08:29:22;31.52;;;18.83;;
21810;SDS011;11067;48.788;9.208;2024-03-07T08:31:49;30.50;;;18.67;;
21810;SDS011;11067;48.788;9.208;2024-03-07T08:34:14;29.07;;;17.50;;
21810;SDS011;11067;48.788;9.208;2024-03-07T08:36:40;32.00;;;18.40;;
21810;SDS011;11067;48.788;9.208;2024-03-07T08:39:05;28.07;;;17.57;;
21810;SDS011;11067;48.788;9.208;2024-03-07T08:41:35;33.35;;;18.13;;
21810;SDS011;11067;48.788;9.208;2024-03-07T08:44:06;29.80;;;18.45;;
21810;SDS011;11067;48.788;9.208;2024-03-07T08:49:19;31.30;;;18.17;;
21810;SDS011;11067;48.788;9.208;2024-03-07T08:51:45;28.57;;;18.23;;
21810;SDS011;11067;48.788;9.208;2024-03-07T08:54:11;30.37;;;18.93;;
21810;SDS011;11067;48.788;9.208;2024-03-07T08:56:36;30.00;;;18.60;;
21810;SDS011;11067;48.788;9.208;2024-03-07T08:59:02;28.70;;;17.85;;
21810;SDS011;11067;48.788;9.208;2024-03-07T09:01:28;31.00;;;18.43;;
21810;SDS011;11067;48.788;9.208;2024-03-07T09:03:53;28.63;;;17.53;;
21810;SDS011;11067;48.788;9.208;2024-03-07T09:06:19;27.30;;;17.40;;
21810;SDS011;11067;48.788;9.208;2024-03-07T09:08:44;33.83;;;19.17;;
21810;SDS011;11067;48.788;9.208;2024-03-07T09:11:10;30.40;;;19.27;;
21810;SDS011;11067;48.788;9.208;2024-03-07T09:13:35;30.05;;;19.25;;
21810;SDS011;11067;48.788;9.208;2024-03-07T09:16:01;31.20;;;19.42;;
21810;SDS011;11067;48.788;9.208;2024-03-07T09:18:30;30.77;;;19.00;;
21810;SDS011;11067;48.788;9.208;2024-03-07T09:20:55;31.03;;;18.67;;
21810;SDS011;11067;48.788;9.208;2024-03-07T09:23:21;30.57;;;19.47;;
21810;SDS011;11067;48.788;9.208;2024-03-07T09:25:46;32.50;;;19.70;;
21810;SDS011;11067;48.788;9.208;2024-03-07T09:28:12;29.77;;;18.50;;
21810;SDS011;11067;48.788;9.208;2024-03-07T09:30:37;31.13;;;19.10;;
21810;SDS011;11067;48.788;9.208;2024-03-07T09:33:04;31.30;;;18.98;;
21810;SDS011;11067;48.788;9.208;2024-03-07T09:35:30;32.17;;;19.80;;
21810;SDS011;11067;48.788;9.208;2024-03-07T09:37:55;32.03;;;19.63;;
21810;SDS011;11067;48.788;9.208;2024-03-07T09:40:21;31.07;;;18.63;;
21810;SDS011;11067;48.788;9.208;2024-03-07T09:42:49;29.85;;;19.23;;
21810;SDS011;11067;48.788;9.208;2024-03-07T09:45:18;31.60;;;19.50;;
21810;SDS011;11067;48.788;9.208;2024-03-07T09:47:45;32.50;;;19.13;;
21810;SDS011;11067;48.788;9.208;2024-03-07T09:50:12;32.92;;;19.98;;
21810;SDS011;11067;48.788;9.208;2024-03-07T09:52:40;34.20;;;19.85;;
21810;SDS011;11067;48.788;9.208;2024-03-07T09:55:08;30.70;;;19.83;;
21810;SDS011;11067;48.788;9.208;2024-03-07T09:57:34;32.37;;;19.77;;
21810;SDS011;11067;48.788;9.208;2024-03-07T10:00:01;29.73;;;18.95;;
21810;SDS011;11067;48.788;9.208;2024-03-07T10:02:28;35.50;;;20.88;;
21810;SDS011;11067;48.788;9.208;2024-03-07T10:04:56;32.10;;;19.33;;
21810;SDS011;11067;48.788;9.208;2024-03-07T10:07:23;32.03;;;19.57;;
21810;SDS011;11067;48.788;9.208;2024-03-07T10:09:49;31.13;;;19.07;;
21810;SDS011;11067;48.788;9.208;2024-03-07T10:12:17;31.63;;;20.23;;
21810;SDS011;11067;48.788;9.208;2024-03-07T10:14:56;35.13;;;19.85;;
21810;SDS011;11067;48.788;9.208;2024-03-07T10:17:25;39.47;;;21.70;;
21810;SDS011;11067;48.788;9.208;2024-03-07T10:19:54;35.35;;;19.98;;
21810;SDS011;11067;48.788;9.208;2024-03-07T10:22:20;32.33;;;20.30;;
21810;SDS011;11067;48.788;9.208;2024-03-07T10:24:49;30.27;;;18.77;;
21810;SDS011;11067;48.788;9.208;2024-03-07T10:27:20;35.78;;;19.52;;
21810;SDS011;11067;48.788;9.208;2024-03-07T10:29:47;31.17;;;19.42;;
21810;SDS011;11067;48.788;9.208;2024-03-07T10:32:14;33.65;;;20.08;;
21810;SDS011;11067;48.788;9.208;2024-03-07T10:34:48;30.13;;;18.58;;
21810;SDS011;11067;48.788;9.208;2024-03-07T10:37:15;32.58;;;19.40;;
21810;SDS011;11067;48.788;9.208;2024-03-07T10:39:44;33.40;;;20.42;;
21810;SDS011;11067;48.788;9.208;2024-03-07T10:42:13;34.10;;;20.40;;
21810;SDS011;11067;48.788;9.208;2024-03-07T10:44:41;36.28;;;20.70;;
21810;SDS011;11067;48.788;9.208;2024-03-07T10:47:09;34.97;;;21.00;;
21810;SDS011;11067;48.788;9.208;2024-03-07T10:49:53;32.33;;;20.43;;
21810;SDS011;11067;48.788;9.208;2024-03-07T10:52:40;33.97;;;19.80;;
21810;SDS011;11067;48.788;9.208;2024-03-07T10:55:18;33.67;;;19.42;;
21810;SDS011;11067;48.788;9.208;2024-03-07T10:58:06;33.00;;;19.98;;
21810;SDS011;11067;48.788;9.208;2024-03-07T11:00:37;32.30;;;20.23;;
21810;SDS011;11067;48.788;9.208;2024-03-07T11:03:10;34.75;;;21.45;;
21810;SDS011;11067;48.788;9.208;2024-03-07T11:05:36;32.38;;;20.02;;
21810;SDS011;11067;48.788;9.208;2024-03-07T11:08:03;32.33;;;20.17;;
21810;SDS011;11067;48.788;9.208;2024-03-07T11:10:36;31.80;;;19.90;;
21810;SDS011;11067;48.788;9.208;2024-03-07T11:13:02;30.80;;;19.07;;
21810;SDS011;11067;48.788;9.208;2024-03-07T11:15:29;32.95;;;19.40;;
21810;SDS011;11067;48.788;9.208;2024-03-07T11:17:56;35.70;;;20.73;;
21810;SDS011;11067;48.788;9.208;2024-03-07T11:20:22;34.73;;;20.17;;
21810;SDS011;11067;48.788;9.208;2024-03-07T11:22:48;33.43;;;19.93;;
21810;SDS011;11067;48.788;9.208;2024-03-07T11:25:17;32.55;;;20.20;;
21810;SDS011;11067;48.788;9.208;2024-03-07T11:27:56;34.60;;;20.42;;
21810;SDS011;11067;48.788;9.208;2024-03-07T11:30:23;34.58;;;21.17;;
21810;SDS011;11067;48.788;9.208;2024-03-07T11:32:52;33.92;;;19.75;;
21810;SDS011;11067;48.788;9.208;2024-03-07T11:35:19;35.00;;;19.80;;
21810;SDS011;11067;48.788;9.208;2024-03-07T11:37:56;32.42;;;19.60;;
21810;SDS011;11067;48.788;9.208;2024-03-07T11:42:49;36.10;;;20.52;;
21810;SDS011;11067;48.788;9.208;2024-03-07T11:45:17;30.88;;;19.30;;
21810;SDS011;11067;48.788;9.208;2024-03-07T11:47:53;31.30;;;20.08;;
21810;SDS011;11067;48.788;9.208;2024-03-07T11:50:25;32.60;;;19.05;;
21810;SDS011;11067;48.788;9.208;2024-03-07T11:52:57;31.08;;;18.35;;
21810;SDS011;11067;48.788;9.208;2024-03-07T11:55:22;30.67;;;19.45;;
21810;SDS011;11067;48.788;9.208;2024-03-07T11:57:49;32.60;;;19.45;;
21810;SDS011;11067;48.788;9.208;2024-03-07T12:00:16;33.20;;;19.42;;
21810;SDS011;11067;48.788;9.208;2024-03-07T12:02:43;33.08;;;19.45;;
21810;SDS011;11067;48.788;9.208;2024-03-07T12:05:09;31.73;;;19.92;;
21810;SDS011;11067;48.788;9.208;2024-03-07T12:07:35;33.05;;;19.58;;
21810;SDS011;11067;48.788;9.208;2024-03-07T12:10:01;32.13;;;19.63;;
21810;SDS011;11067;48.788;9.208;2024-03-07T12:12:29;33.33;;;19.48;;
21810;SDS011;11067;48.788;9.208;2024-03-07T12:14:55;32.88;;;19.70;;
21810;SDS011;11067;48.788;9.208;2024-03-07T12:17:21;32.50;;;20.45;;
21810;SDS011;11067;48.788;9.208;2024-03-07T12:19:47;34.47;;;20.23;;
21810;SDS011;11067;48.788;9.208;2024-03-07T12:22:18;32.45;;;19.95;;
21810;SDS011;11067;48.788;9.208;2024-03-07T12:24:47;33.45;;;20.38;;
21810;SDS011;11067;48.788;9.208;2024-03-07T12:27:24;33.45;;;20.48;;
21810;SDS011;11067;48.788;9.208;2024-03-07T12:29:49;34.40;;;21.07;;
21810;SDS011;11067;48.788;9.208;2024-03-07T12:32:17;34.00;;;21.03;;
21810;SDS011;11067;48.788;9.208;2024-03-07T12:34:43;35.27;;;20.50;;
21810;SDS011;11067;48.788;9.208;2024-03-07T12:37:12;34.43;;;20.73;;
21810;SDS011;11067;48.788;9.208;2024-03-07T12:39:44;33.50;;;19.95;;
21810;SDS011;11067;48.788;9.208;2024-03-07T12:42:16;35.42;;;21.15;;
21810;SDS011;11067;48.788;9.208;2024-03-07T12:44:43;35.07;;;21.93;;
21810;SDS011;11067;48.788;9.208;2024-03-07T12:47:16;33.15;;;21.15;;
21810;SDS011;11067;48.788;9.208;2024-03-07T12:49:42;36.13;;;21.48;;
21810;SDS011;11067;48.788;9.208;2024-03-07T12:52:09;32.33;;;20.67;;
21810;SDS011;11067;48.788;9.208;2024-03-07T12:54:35;32.80;;;21.02;;
21810;SDS011;11067;48.788;9.208;2024-03-07T12:57:10;32.22;;;20.60;;
21810;SDS011;11067;48.788;9.208;2024-03-07T12:59:37;34.00;;;19.90;;
21810;SDS011;11067;48.788;9.208;2024-03-07T13:04:59;36.25;;;21.60;;
21810;SDS011;11067;48.788;9.208;2024-03-07T13:07:24;37.10;;;21.23;;
21810;SDS011;11067;48.788;9.208;2024-03-07T13:09:50;33.77;;;20.07;;
21810;SDS011;11067;48.788;9.208;2024-03-07T13:12:15;34.90;;;20.73;;
21810;SDS011;11067;48.788;9.208;2024-03-07T13:14:41;32.42;;;20.73;;
21810;SDS011;11067;48.788;9.208;2024-03-07T13:17:09;33.40;;;20.63;;
21810;SDS011;11067;48.788;9.208;2024-03-07T13:19:34;30.57;;;19.97;;
21810;SDS011;11067;48.788;9.208;2024-03-07T13:22:03;33.25;;;20.42;;
21810;SDS011;11067;48.788;9.208;2024-03-07T13:24:31;32.78;;;20.55;;
21810;SDS011;11067;48.788;9.208;2024-03-07T13:26:57;34.38;;;20.13;;
21810;SDS011;11067;48.788;9.208;2024-03-07T13:29:22;33.50;;;19.90;;
21810;SDS011;11067;48.788;9.208;2024-03-07T13:31:51;31.65;;;20.75;;
21810;SDS011;11067;48.788;9.208;2024-03-07T13:34:17;29.80;;;19.77;;
21810;SDS011;11067;48.788;9.208;2024-03-07T13:36:43;31.60;;;19.43;;
21810;SDS011;11067;48.788;9.208;2024-03-07T13:39:10;31.35;;;19.95;;
21810;SDS011;11067;48.788;9.208;2024-03-07T13:41:40;34.40;;;20.38;;
21810;SDS011;11067;48.788;9.208;2024-03-07T13:44:06;32.47;;;20.23;;
21810;SDS011;11067;48.788;9.208;2024-03-07T13:46:32;31.35;;;20.02;;
21810;SDS011;11067;48.788;9.208;2024-03-07T13:49:01;30.65;;;19.67;;
21810;SDS011;11067;48.788;9.208;2024-03-07T13:51:53;32.90;;;20.77;;
21810;SDS011;11067;48.788;9.208;2024-03-07T13:54:25;32.42;;;19.92;;
21810;SDS011;11067;48.788;9.208;2024-03-07T13:59:54;31.65;;;20.75;;
21810;SDS011;11067;48.788;9.208;2024-03-07T14:08:45;32.95;;;21.20;;
21810;SDS011;11067;48.788;9.208;2024-03-07T14:11:53;35.28;;;21.88;;
21810;SDS011;11067;48.788;9.208;2024-03-07T14:14:44;32.95;;;22.27;;
21810;SDS011;11067;48.788;9.208;2024-03-07T14:21:06;34.47;;;22.27;;
21810;SDS011;11067;48.788;9.208;2024-03-07T14:27:09;36.75;;;23.15;;
21810;SDS011;11067;48.788;9.208;2024-03-07T14:32:14;34.88;;;22.13;;
21810;SDS011;11067;48.788;9.208;2024-03-07T14:37:36;39.30;;;22.17;;
21810;SDS011;11067;48.788;9.208;2024-03-07T14:40:10;34.78;;;21.73;;
21810;SDS011;11067;48.788;9.208;2024-03-07T14:42:42;32.85;;;20.80;;
21810;SDS011;11067;48.788;9.208;2024-03-07T14:45:20;33.85;;;21.27;;
21810;SDS011;11067;48.788;9.208;2024-03-07T14:47:50;32.55;;;20.95;;
21810;SDS011;11067;48.788;9.208;2024-03-07T14:50:19;33.60;;;21.48;;
21810;SDS011;11067;48.788;9.208;2024-03-07T14:52:46;33.05;;;21.27;;
21810;SDS011;11067;48.788;9.208;2024-03-07T14:55:13;32.80;;;20.95;;
21810;SDS011;11067;48.788;9.208;2024-03-07T14:57:39;31.80;;;19.57;;